Time;durP1;ratioP1;P1;durP2;ratioP2;P2;SDS_P1;SDS_P2;PMS_P1;PMS_P2;Temp;Humidity;BMP_temperature;BMP_pressure;BME280_temperature;BME280_humidity;BME280_pressure;Samples;Min_cycle;Max_cycle;Signal;HPM_P1;HPM_P2
2024/02/02 00:01:57;;;;;;;19.20;3.00;;;;;;;4.65;70.19;101568.56;105351;1284;61285;-57
2024/02/02 00:04:44;;;;;;;15.50;2.70;;;;;;;4.63;70.27;101571.77;105430;1285;72178;-56
2024/02/02 00:07:30;;;;;;;16.00;3.10;;;;;;;4.63;70.22;101565.77;105344;1286;70036;-56
2024/02/02 00:10:16;;;;;;;19.80;3.60;;;;;;;4.63;70.28;101563.04;105394;1289;71219;-54
2024/02/02 00:13:03;;;;;;;26.10;4.10;;;;;;;4.62;70.24;101564.57;105341;1285;61222;-57
2024/02/02 00:15:49;;;;;;;22.20;3.40;;;;;;;4.63;70.12;101563.89;105375;1285;63111;-56
2024/02/02 00:18:35;;;;;;;18.30;3.50;;;;;;;4.62;70.21;101569.86;105367;1285;76000;-55
2024/02/02 00:21:22;;;;;;;21.20;3.10;;;;;;;4.62;70.24;101572.91;105292;1285;67192;-56
2024/02/02 00:24:08;;;;;;;13.60;3.20;;;;;;;4.60;70.26;101577.84;105353;1285;71215;-56
2024/02/02 00:26:54;;;;;;;20.80;5.50;;;;;;;4.60;70.34;101578.34;105390;1285;61051;-56
2024/02/02 00:29:45;;;;;;;20.70;2.80;;;;;;;4.60;70.23;101578.34;105352;1285;61698;-56
2024/02/02 00:32:32;;;;;;;14.60;2.70;;;;;;;4.60;70.21;101574.42;105354;1285;73297;-54
2024/02/02 00:35:18;;;;;;;50.40;18.70;;;;;;;4.60;70.18;101581.94;105291;1285;67515;-56
2024/02/02 00:38:05;;;;;;;18.60;4.00;;;;;;;4.60;70.09;101585.02;105395;1285;74005;-56
2024/02/02 00:40:51;;;;;;;21.80;4.00;;;;;;;4.61;70.19;101585.20;105284;1285;61170;-57
2024/02/02 00:43:37;;;;;;;15.90;3.60;;;;;;;4.60;70.13;101581.41;105325;1285;61272;-56
2024/02/02 00:46:23;;;;;;;22.60;3.70;;;;;;;4.60;70.15;101580.56;105289;1286;73357;-56
2024/02/02 00:49:09;;;;;;;21.90;4.10;;;;;;;4.60;69.91;101577.16;105349;1285;68155;-54
2024/02/02 00:51:56;;;;;;;113.10;58.40;;;;;;;4.62;70.08;101577.70;105363;1289;71574;-55
2024/02/02 00:54:42;;;;;;;20.30;3.40;;;;;;;4.61;70.08;101581.77;105312;1285;61626;-56
2024/02/02 00:57:29;;;;;;;19.60;2.50;;;;;;;4.59;70.13;101584.81;105410;1286;61407;-54
2024/02/02 01:00:16;;;;;;;19.10;3.10;;;;;;;4.58;70.12;101588.54;105388;1285;74764;-55
2024/02/02 01:03:02;;;;;;;19.90;4.00;;;;;;;4.57;69.95;101589.73;105416;1285;70549;-54
2024/02/02 01:05:48;;;;;;;27.20;4.20;;;;;;;4.58;70.00;101592.65;105360;1285;75395;-57
2024/02/02 01:08:35;;;;;;;19.90;3.00;;;;;;;4.58;70.19;101598.44;105341;1287;61278;-56
2024/02/02 01:11:22;;;;;;;50.80;11.90;;;;;;;4.57;70.20;101600.46;105399;1285;61218;-53
2024/02/02 01:14:08;;;;;;;21.40;3.40;;;;;;;4.57;70.19;101612.44;105402;1285;73303;-55
2024/02/02 01:16:54;;;;;;;;;;;;;;;4.56;70.23;101623.51;105403;1285;68056;-54
2024/02/02 01:19:40;;;;;;;;;;;;;;;4.56;70.32;101623.34;105337;1285;71016;-55
2024/02/02 01:22:27;;;;;;;13.70;2.60;;;;;;;4.55;70.38;101622.27;105189;1285;275901;-57
2024/02/02 01:25:14;;;;;;;17.80;2.70;;;;;;;4.53;70.44;101628.20;105438;1287;61186;-53
2024/02/02 01:28:00;;;;;;;21.90;3.50;;;;;;;4.52;70.49;101626.46;105365;1285;75353;-56
2024/02/02 01:30:47;;;;;;;15.70;2.90;;;;;;;4.50;70.54;101626.41;105406;1284;67211;-56
2024/02/02 01:33:33;;;;;;;15.80;2.50;;;;;;;4.46;70.62;101625.11;105336;1285;72017;-56
2024/02/02 01:36:19;;;;;;;25.50;3.20;;;;;;;4.43;70.65;101627.95;105245;1286;61785;-56
2024/02/02 01:39:10;;;;;;;8.70;2.40;;;;;;;4.40;70.79;101633.68;105392;1285;61167;-56
2024/02/02 01:41:56;;;;;;;20.80;2.90;;;;;;;4.38;70.89;101639.92;105403;1284;73316;-54
2024/02/02 01:44:43;;;;;;;27.80;3.40;;;;;;;4.35;70.94;101638.84;105428;1286;68378;-56
2024/02/02 01:47:29;;;;;;;25.10;3.40;;;;;;;4.33;70.88;101636.56;106587;1285;72286;-57
2024/02/02 01:50:15;;;;;;;18.90;3.80;;;;;;;4.31;71.05;101630.36;105850;1285;59996;-55
2024/02/02 01:53:02;;;;;;;20.50;3.30;;;;;;;4.29;71.13;101625.55;105397;1286;61417;-57
2024/02/02 01:55:48;;;;;;;13.30;2.90;;;;;;;4.29;71.39;101618.03;105343;1285;73221;-56
2024/02/02 01:58:34;;;;;;;16.60;3.60;;;;;;;4.28;71.31;101630.47;105365;1284;67373;-55
2024/02/02 02:01:21;;;;;;;22.60;3.10;;;;;;;4.26;71.37;101630.23;105254;1285;71263;-56
2024/02/02 02:04:07;;;;;;;19.50;3.50;;;;;;;4.23;71.26;101628.95;105303;1285;60993;-57
2024/02/02 02:06:54;;;;;;;13.20;5.10;;;;;;;4.21;71.36;101631.48;105403;1285;62653;-55
2024/02/02 02:09:42;;;;;;;23.40;4.10;;;;;;;4.19;71.52;101637.04;105373;1285;73222;-57
2024/02/02 02:12:28;;;;;;;21.40;4.00;;;;;;;4.10;71.55;101640.08;106200;1285;67477;-59
2024/02/02 02:15:14;;;;;;;30.90;3.40;;;;;;;3.99;71.45;101647.13;105386;1285;73989;-57
2024/02/02 02:18:01;;;;;;;24.60;3.80;;;;;;;3.92;71.65;101653.75;105370;1285;61330;-56
2024/02/02 02:20:52;;;;;;;26.80;3.40;;;;;;;3.86;71.93;101655.11;105315;1285;61194;-56
2024/02/02 02:23:38;;;;;;;24.60;3.60;;;;;;;3.81;71.94;101657.20;105229;1285;73395;-56
2024/02/02 02:26:28;;;;;;;20.30;2.90;;;;;;;3.80;72.02;101655.10;105395;1286;67235;-54
2024/02/02 02:29:14;;;;;;;25.90;4.20;;;;;;;3.79;72.24;101657.64;105675;1285;71658;-56
2024/02/02 02:32:00;;;;;;;;;;;;;;;3.79;72.34;101656.44;83402;1285;10002893;-56
2024/02/02 02:34:47;;;;;;;24.90;2.80;;;;;;;3.79;72.38;101656.95;105229;1285;73142;-57
2024/02/02 02:37:33;;;;;;;27.50;4.20;;;;;;;3.82;72.69;101665.05;105358;1285;61276;-55
2024/02/02 02:40:19;;;;;;;21.80;4.50;;;;;;;3.83;72.69;101669.19;105304;1284;61177;-54
2024/02/02 02:43:05;;;;;;;28.40;4.20;;;;;;;3.85;72.74;101669.41;105348;1285;73761;-56
2024/02/02 02:45:52;;;;;;;;;;;;;;;3.87;72.83;101670.16;105537;1285;68870;-55
2024/02/02 02:48:38;;;;;;;17.30;4.30;;;;;;;3.84;72.78;101663.25;105320;1284;71223;-53
2024/02/02 02:51:24;;;;;;;33.50;4.90;;;;;;;3.80;72.79;101663.30;105314;1285;61451;-56
2024/02/02 02:54:10;;;;;;;23.50;3.90;;;;;;;3.76;72.86;101663.70;105381;1284;61141;-55
2024/02/02 02:56:57;;;;;;;22.40;3.60;;;;;;;3.70;72.81;101666.59;105371;1285;74334;-55
2024/02/02 02:59:43;;;;;;;27.90;3.80;;;;;;;3.64;72.75;101665.59;105366;1285;67708;-54
2024/02/02 03:02:29;;;;;;;23.90;3.90;;;;;;;3.64;73.47;101665.92;105351;1288;73862;-57
2024/02/02 03:05:15;;;;;;;20.20;3.20;;;;;;;3.65;73.15;101672.60;105301;1288;61277;-56
2024/02/02 03:08:02;;;;;;;22.10;4.10;;;;;;;3.63;73.00;101675.79;105311;1285;61604;-56
2024/02/02 03:10:48;;;;;;;22.70;3.50;;;;;;;3.61;73.08;101672.17;105391;1285;73235;-56
2024/02/02 03:13:34;;;;;;;23.20;3.80;;;;;;;3.61;73.00;101671.65;105298;1285;72320;-56
2024/02/02 03:16:20;;;;;;;33.90;4.50;;;;;;;3.58;72.87;101671.91;105322;1285;71247;-55
2024/02/02 03:19:07;;;;;;;19.20;3.50;;;;;;;3.57;73.34;101673.23;105410;1285;59618;-56
2024/02/02 03:21:53;;;;;;;;;;;;;;;3.58;73.22;101676.16;105383;1285;59901;-57
2024/02/02 03:24:39;;;;;;;32.40;5.70;;;;;;;3.60;73.38;101685.60;105367;1285;73167;-57
2024/02/02 03:27:25;;;;;;;;;;;;;;;3.61;73.44;101689.55;105422;1284;67205;-55
2024/02/02 03:30:12;;;;;;;18.50;3.70;;;;;;;3.64;73.71;101684.15;105393;1285;71304;-56
2024/02/02 03:32:58;;;;;;;24.70;3.30;;;;;;;3.68;74.19;101688.18;105855;1285;60600;-56
2024/02/02 03:35:45;;;;;;;;;;;;;;;3.73;73.95;101689.88;105376;1285;61305;-57
2024/02/02 03:38:31;;;;;;;18.70;3.20;;;;;;;3.75;73.54;101684.48;105373;1285;73235;-57
2024/02/02 03:41:17;;;;;;;27.90;3.70;;;;;;;3.78;73.73;101691.54;105339;1285;67219;-62
2024/02/02 03:44:04;;;;;;;17.90;3.90;;;;;;;3.79;73.81;101692.26;105371;1285;73992;-56
2024/02/02 03:46:50;;;;;;;24.90;4.30;;;;;;;3.79;74.11;101694.14;105377;1285;61210;-54
2024/02/02 03:49:37;;;;;;;33.70;5.30;;;;;;;3.79;73.82;101692.61;105395;1285;61078;-54
2024/02/02 03:52:24;;;;;;;19.90;3.50;;;;;;;3.79;73.81;101692.77;105386;1286;72198;-56
2024/02/02 03:55:10;;;;;;;18.50;3.60;;;;;;;3.77;74.16;101694.08;105442;1284;67290;-55
2024/02/02 03:57:57;;;;;;;26.80;4.50;;;;;;;3.73;74.28;101689.36;105465;1286;71586;-57
2024/02/02 04:00:43;;;;;;;22.70;3.80;;;;;;;3.66;74.01;101685.74;105359;1285;61253;-56
2024/02/02 04:03:32;;;;;;;30.40;4.30;;;;;;;3.63;74.36;101691.80;105388;1285;61261;-57
2024/02/02 04:06:18;;;;;;;22.60;3.30;;;;;;;3.59;74.49;101695.45;104743;1286;878380;-55
2024/02/02 04:09:05;;;;;;;26.30;3.50;;;;;;;3.56;74.66;101697.23;105441;1285;68990;-55
2024/02/02 04:11:51;;;;;;;;;;;;;;;3.50;74.68;101702.02;105368;1288;71529;-56
2024/02/02 04:14:37;;;;;;;23.60;3.50;;;;;;;3.50;74.97;101698.25;83452;1285;10004037;-56
2024/02/02 04:17:23;;;;;;;20.80;4.10;;;;;;;3.46;74.84;101694.72;105518;1285;72776;-54
2024/02/02 04:20:10;;;;;;;23.20;3.90;;;;;;;3.40;74.86;101690.94;105551;1287;61121;-55
2024/02/02 04:22:56;;;;;;;;;;;;;;;3.38;74.88;101685.61;106544;1285;60784;-54
2024/02/02 04:25:42;;;;;;;24.70;4.00;;;;;;;3.35;75.15;101697.61;105356;1285;73472;-57
2024/02/02 04:28:28;;;;;;;29.80;4.70;;;;;;;3.29;74.91;101696.41;105352;1284;68004;-56
2024/02/02 04:31:14;;;;;;;27.00;4.60;;;;;;;3.29;75.24;101697.25;105413;1285;71245;-56
2024/02/02 04:34:01;;;;;;;24.50;4.40;;;;;;;3.29;75.05;101704.10;105385;1285;61166;-56
2024/02/02 04:36:47;;;;;;;24.00;4.00;;;;;;;3.33;75.07;101710.86;105325;1288;61545;-55
2024/02/02 04:39:34;;;;;;;19.40;4.70;;;;;;;3.37;75.35;101710.64;105391;1285;73176;-54
2024/02/02 04:42:20;;;;;;;24.70;3.80;;;;;;;3.40;75.32;101710.56;105301;1287;69364;-56
2024/02/02 04:45:06;;;;;;;22.50;3.50;;;;;;;3.40;75.19;101707.14;105338;1288;71478;-56
2024/02/02 04:47:52;;;;;;;;;;;;;;;3.42;75.19;101711.80;106241;1284;59296;-54
2024/02/02 04:50:39;;;;;;;28.60;4.40;;;;;;;3.43;75.57;101714.55;105375;1284;61130;-56
2024/02/02 04:53:25;;;;;;;;;;;;;;;3.39;75.64;101714.09;105378;1285;73215;-55
2024/02/02 04:56:12;;;;;;;25.30;3.60;;;;;;;3.37;75.93;101717.27;105419;1285;67225;-55
2024/02/02 04:58:58;;;;;;;;;;;;;;;3.29;75.78;101715.33;105369;1285;72067;-56
2024/02/02 05:01:44;;;;;;;29.20;3.40;;;;;;;3.28;75.68;101717.86;105299;1285;61350;-55
2024/02/02 05:04:30;;;;;;;26.40;3.00;;;;;;;3.28;75.73;101722.98;105370;1285;61385;-56
2024/02/02 05:07:17;;;;;;;17.00;3.20;;;;;;;3.29;75.69;101721.27;105365;1285;74254;-54
2024/02/02 05:10:04;;;;;;;20.40;3.70;;;;;;;3.26;75.78;101721.87;105362;1285;67172;-56
2024/02/02 05:12:50;;;;;;;24.50;3.70;;;;;;;3.21;75.70;101718.48;105842;1285;72308;-54
2024/02/02 05:15:37;;;;;;;21.90;3.10;;;;;;;3.17;76.03;101715.62;105389;1285;61135;-54
2024/02/02 05:18:23;;;;;;;13.00;3.40;;;;;;;3.11;76.02;101710.85;105462;1285;61134;-56
2024/02/02 05:21:09;;;;;;;26.80;5.00;;;;;;;3.08;76.27;101716.71;105318;1285;73261;-57
2024/02/02 05:23:56;;;;;;;23.60;3.80;;;;;;;3.04;75.88;101715.73;105378;1285;67364;-56
2024/02/02 05:26:43;;;;;;;24.20;3.60;;;;;;;3.04;76.02;101718.14;105354;1285;73017;-55
2024/02/02 05:29:29;;;;;;;19.90;3.60;;;;;;;3.06;76.14;101712.90;105364;1286;61081;-56
2024/02/02 05:32:15;;;;;;;32.30;3.80;;;;;;;3.06;76.66;101703.73;105337;1285;61225;-52
2024/02/02 05:35:01;;;;;;;25.40;4.40;;;;;;;3.06;76.76;101702.68;105406;1285;73329;-55
2024/02/02 05:37:48;;;;;;;22.40;3.50;;;;;;;3.00;76.60;101707.79;105376;1285;67299;-55
2024/02/02 05:40:34;;;;;;;22.30;3.70;;;;;;;2.96;76.82;101702.04;105232;1283;71871;-55
2024/02/02 05:43:20;;;;;;;29.00;4.10;;;;;;;2.90;76.86;101699.62;105351;1285;61059;-56
2024/02/02 05:46:06;;;;;;;23.90;3.60;;;;;;;2.82;77.20;101701.08;105360;1285;61813;-54
2024/02/02 05:48:53;;;;;;;23.00;3.90;;;;;;;2.73;76.80;101704.33;105358;1283;73116;-56
2024/02/02 05:51:39;;;;;;;24.70;4.40;;;;;;;2.67;77.23;101707.87;105367;1286;67456;-56
2024/02/02 05:54:25;;;;;;;24.40;4.40;;;;;;;2.58;76.84;101706.58;105326;1285;71291;-55
2024/02/02 05:57:11;;;;;;;21.00;3.80;;;;;;;2.53;77.67;101710.84;105405;1285;61247;-57
2024/02/02 05:59:58;;;;;;;23.50;3.40;;;;;;;2.48;77.60;101714.75;105393;1285;61180;-54
2024/02/02 06:02:45;;;;;;;21.10;3.90;;;;;;;2.44;78.09;101712.21;105338;1285;77442;-54
2024/02/02 06:05:32;;;;;;;16.30;3.90;;;;;;;2.44;78.35;101716.30;106550;1285;67212;-56
2024/02/02 06:08:19;;;;;;;22.70;4.10;;;;;;;2.42;77.96;101715.73;106560;1285;72624;-57
2024/02/02 06:11:05;;;;;;;25.70;3.60;;;;;;;2.51;78.90;101722.00;106667;1284;58821;-56
2024/02/02 06:13:55;;;;;;;26.20;4.30;;;;;;;2.55;78.38;101719.58;106654;1284;60185;-57
2024/02/02 06:16:41;;;;;;;27.90;4.20;;;;;;;2.62;78.82;101723.88;106638;1285;73327;-56
2024/02/02 06:19:27;;;;;;;25.60;4.90;;;;;;;2.64;78.29;101734.33;106632;1284;68437;-57
2024/02/02 06:22:13;;;;;;;23.60;3.90;;;;;;;2.67;78.41;101734.79;106625;1285;71101;-56
2024/02/02 06:24:59;;;;;;;18.10;3.90;;;;;;;2.73;78.61;101731.06;106664;1284;58660;-58
2024/02/02 06:27:45;;;;;;;23.00;4.50;;;;;;;2.78;78.88;101733.43;106709;1284;58958;-57
2024/02/02 06:30:31;;;;;;;26.00;4.50;;;;;;;2.80;78.86;101730.95;106680;1284;73456;-56
2024/02/02 06:33:17;;;;;;;21.60;6.20;;;;;;;2.85;79.15;101739.14;106676;1283;68527;-56
2024/02/02 06:36:03;;;;;;;25.10;4.90;;;;;;;2.88;78.73;101734.46;106638;1284;71297;-57
2024/02/02 06:38:49;;;;;;;177.50;35.80;;;;;;;2.93;79.15;101737.70;106692;1284;59260;-57
2024/02/02 06:41:34;;;;;;;25.30;5.20;;;;;;;3.01;80.02;101737.27;106728;1284;60103;-57
2024/02/02 06:44:20;;;;;;;27.20;5.10;;;;;;;3.08;80.02;101739.88;106751;1284;74563;-57
2024/02/02 06:47:06;;;;;;;22.00;4.20;;;;;;;3.12;80.31;101738.65;106685;1284;68850;-57
2024/02/02 06:49:52;;;;;;;24.50;5.00;;;;;;;3.14;80.13;101740.07;106660;1285;71640;-57
2024/02/02 06:52:38;;;;;;;63.90;24.50;;;;;;;3.21;80.51;101743.70;106687;1284;58491;-57
2024/02/02 06:55:24;;;;;;;25.20;4.40;;;;;;;3.25;80.56;101750.32;106675;1284;59048;-56
2024/02/02 06:58:41;;;;;;;19.90;3.80;;;;;;;3.28;80.65;101755.34;106730;1284;73370;-57
2024/02/02 07:01:27;;;;;;;18.70;4.30;;;;;;;3.31;80.52;101754.25;106153;1284;67646;-55
2024/02/02 07:04:17;;;;;;;;;;;;;;;3.35;80.65;101747.89;105491;1285;71222;-55
2024/02/02 07:07:03;;;;;;;27.10;6.00;;;;;;;3.38;80.66;101747.97;105384;1285;60636;-55
2024/02/02 07:09:52;;;;;;;18.30;4.00;;;;;;;3.39;80.49;101745.30;105486;1284;61272;-56
2024/02/02 07:12:53;;;;;;;31.60;6.40;;;;;;;3.41;80.95;101749.11;105325;1285;74080;-56
2024/02/02 07:15:43;;;;;;;27.80;5.60;;;;;;;3.41;80.79;101746.71;105329;1285;66237;-56
2024/02/02 07:18:36;;;;;;;31.50;6.70;;;;;;;3.43;81.31;101747.61;105347;1285;71210;-56
2024/02/02 07:21:30;;;;;;;25.30;4.70;;;;;;;3.41;80.91;101751.33;105324;1289;61043;-55
2024/02/02 07:24:17;;;;;;;24.20;4.80;;;;;;;3.45;81.30;101756.39;106638;1284;59673;-56
2024/02/02 07:27:04;;;;;;;16.70;4.70;;;;;;;3.46;81.41;101754.55;106624;1285;74403;-56
2024/02/02 07:29:50;;;;;;;25.50;5.00;;;;;;;3.48;81.35;101755.81;106610;1285;68278;-56
2024/02/02 07:32:35;;;;;;;26.70;5.50;;;;;;;3.51;81.41;101752.33;106679;1284;71832;-55
2024/02/02 07:35:31;;;;;;;17.50;3.70;;;;;;;3.54;81.76;101746.45;106619;1285;59011;-57
2024/02/02 07:38:38;;;;;;;20.70;5.40;;;;;;;3.56;82.05;101744.98;106571;1286;60404;-56
2024/02/02 07:41:28;;;;;;;26.60;8.10;;;;;;;3.56;81.44;101736.96;106501;1285;74329;-57
2024/02/02 07:44:14;;;;;;;22.60;5.50;;;;;;;3.60;81.43;101735.39;106608;1285;67410;-57
2024/02/02 07:47:00;;;;;;;23.10;5.50;;;;;;;3.62;81.51;101740.05;106630;1285;70758;-56
2024/02/02 07:49:46;;;;;;;25.20;4.20;;;;;;;3.63;81.47;101735.45;106473;1285;58989;-56
2024/02/02 07:52:32;;;;;;;24.50;4.80;;;;;;;3.63;81.50;101736.48;106383;1285;59353;-56
2024/02/02 07:55:18;;;;;;;29.60;6.20;;;;;;;3.62;81.62;101728.80;106524;1284;74433;-56
2024/02/02 07:58:04;;;;;;;25.70;4.80;;;;;;;3.63;81.48;101723.02;106634;1285;67407;-56
2024/02/02 08:00:50;;;;;;;28.70;5.60;;;;;;;3.68;81.47;101726.21;106517;1285;71371;-55
2024/02/02 08:03:37;;;;;;;;;;;;;;;3.71;81.31;101727.48;106500;1285;58992;-57
2024/02/02 08:06:24;;;;;;;22.40;4.90;;;;;;;3.77;81.39;101725.81;106586;1285;60278;-57
2024/02/02 08:09:09;;;;;;;19.30;4.60;;;;;;;3.78;81.45;101716.45;106520;1288;72856;-56
2024/02/02 08:11:55;;;;;;;23.80;5.80;;;;;;;3.80;81.63;101717.86;106481;1285;68931;-55
2024/02/02 08:14:41;;;;;;;23.10;5.50;;;;;;;3.81;81.67;101716.36;106454;1285;71329;-56
2024/02/02 08:17:27;;;;;;;22.60;4.70;;;;;;;3.85;81.68;101722.30;106485;1284;58947;-56
2024/02/02 08:20:14;;;;;;;21.80;5.10;;;;;;;3.85;81.71;101720.93;106516;1288;58989;-57
2024/02/02 08:23:01;;;;;;;21.50;5.10;;;;;;;3.90;81.58;101725.66;106476;1285;74150;-57
2024/02/02 08:25:47;;;;;;;18.20;4.70;;;;;;;3.97;81.65;101724.68;106466;1285;66962;-57
2024/02/02 08:28:33;;;;;;;23.90;4.70;;;;;;;4.03;81.80;101726.54;106505;1285;71355;-57
2024/02/02 08:31:19;;;;;;;25.40;5.60;;;;;;;4.07;81.67;101723.42;106285;1285;270874;-57
2024/02/02 08:34:05;;;;;;;22.80;4.40;;;;;;;4.09;81.77;101722.47;106611;1284;59052;-57
2024/02/02 08:36:52;;;;;;;21.20;5.40;;;;;;;4.12;81.67;101716.23;106533;1285;74220;-57
2024/02/02 08:39:38;;;;;;;22.30;4.10;;;;;;;4.12;81.62;101718.98;106547;1286;67329;-57
2024/02/02 08:42:24;;;;;;;20.60;4.90;;;;;;;4.10;81.75;101722.33;106604;1285;72117;-57
2024/02/02 08:45:40;;;;;;;19.30;4.80;;;;;;;4.07;81.62;101713.52;106496;1285;59061;-55
2024/02/02 08:48:26;;;;;;;22.60;5.20;;;;;;;4.09;81.72;101711.02;106553;1284;59947;-56
2024/02/02 08:51:21;;;;;;;21.20;4.50;;;;;;;4.05;81.61;101710.91;106642;1285;74210;-56
2024/02/02 08:54:13;;;;;;;21.30;5.10;;;;;;;4.03;81.74;101702.49;106512;1285;67343;-57
2024/02/02 08:57:17;;;;;;;21.80;5.10;;;;;;;4.02;81.73;101698.04;106553;1284;72897;-56
2024/02/02 09:00:40;;;;;;;28.40;5.30;;;;;;;4.11;81.90;101696.07;106523;1284;59011;-57
2024/02/02 09:03:43;;;;;;;24.60;5.50;;;;;;;4.21;81.63;101699.23;106619;1284;58995;-56
2024/02/02 09:06:29;;;;;;;22.30;5.20;;;;;;;4.26;81.60;101693.71;106519;1285;73783;-57
2024/02/02 09:09:17;;;;;;;18.30;5.20;;;;;;;4.28;81.52;101695.34;106538;1285;68419;-57
2024/02/02 09:12:03;;;;;;;21.60;5.80;;;;;;;4.32;81.50;101685.19;106637;1285;72423;-56
2024/02/02 09:14:49;;;;;;;18.80;4.70;;;;;;;4.35;81.49;101680.48;106582;1284;59010;-55
2024/02/02 09:17:35;;;;;;;22.10;4.80;;;;;;;4.40;81.41;101681.30;106540;1284;60186;-57
2024/02/02 09:20:40;;;;;;;19.10;5.00;;;;;;;4.47;81.25;101676.69;106509;1285;74257;-55
2024/02/02 09:23:27;;;;;;;17.10;4.50;;;;;;;4.60;81.21;101675.67;106489;1284;67400;-56
2024/02/02 09:26:15;;;;;;;16.30;4.70;;;;;;;4.87;81.08;101677.84;105899;1285;72375;-55
2024/02/02 09:29:01;;;;;;;19.00;5.00;;;;;;;5.25;80.96;101670.35;105239;1284;61276;-55
2024/02/02 09:31:48;;;;;;;;;;;;;;;5.39;80.46;101669.64;105280;1285;61184;-55
2024/02/02 09:34:34;;;;;;;;;;;;;;;5.40;79.88;101661.12;105282;1285;74194;-53
2024/02/02 09:37:28;;;;;;;19.30;4.90;;;;;;;5.33;79.73;101657.36;105267;1289;67231;-55
2024/02/02 09:40:39;;;;;;;24.50;4.30;;;;;;;5.23;79.64;101656.14;105319;1286;72802;-53
2024/02/02 09:43:44;;;;;;;16.00;3.70;;;;;;;5.06;79.43;101650.46;105252;1290;61369;-55
2024/02/02 09:46:39;;;;;;;24.40;5.30;;;;;;;4.90;79.51;101650.09;105259;1285;59317;-54
2024/02/02 09:49:28;;;;;;;23.70;4.40;;;;;;;4.88;79.86;101643.55;105232;1285;73270;-56
2024/02/02 09:52:23;;;;;;;18.90;4.80;;;;;;;4.92;79.79;101641.08;105270;1289;68031;-54
2024/02/02 09:55:21;;;;;;;17.10;5.20;;;;;;;4.95;79.86;101632.44;105271;1284;71959;-55
2024/02/02 09:58:14;;;;;;;19.50;5.40;;;;;;;5.01;79.78;101635.14;105284;1285;61180;-54
2024/02/02 10:01:20;;;;;;;22.10;5.80;;;;;;;5.09;79.97;101638.23;105279;1285;59286;-55
2024/02/02 10:04:34;;;;;;;17.10;5.60;;;;;;;5.15;79.41;101646.05;105249;1287;74538;-53
2024/02/02 10:07:29;;;;;;;22.20;5.60;;;;;;;5.13;79.54;101644.14;105268;1285;67324;-54
2024/02/02 10:10:42;;;;;;;67.50;33.50;;;;;;;5.20;79.34;101636.92;105323;1287;72750;-55
2024/02/02 10:13:43;;;;;;;20.60;5.20;;;;;;;5.21;79.23;101638.98;105261;1285;61249;-56
2024/02/02 10:16:48;;;;;;;26.60;6.40;;;;;;;5.28;79.44;101628.36;105266;1285;61002;-55
2024/02/02 10:19:52;;;;;;;29.70;6.70;;;;;;;5.36;79.21;101627.69;105123;1285;72977;-55
2024/02/02 10:23:22;;;;;;;24.50;5.80;;;;;;;5.35;78.89;101627.50;105218;1285;67311;-56
2024/02/02 10:26:33;;;;;;;22.80;5.50;;;;;;;5.42;79.25;101626.27;105453;1285;100499;-54
2024/02/02 10:29:55;;;;;;;33.80;7.00;;;;;;;5.50;78.66;101630.57;106488;1285;58952;-56
2024/02/02 10:33:23;;;;;;;24.20;6.00;;;;;;;5.53;78.83;101634.21;106529;1284;59665;-56
2024/02/02 10:36:22;;;;;;;29.60;6.10;;;;;;;5.63;78.81;101624.84;105150;1290;73507;-54
2024/02/02 10:39:45;;;;;;;20.70;5.50;;;;;;;5.72;78.72;101625.85;105248;1289;66233;-55
2024/02/02 10:42:44;;;;;;;20.60;5.00;;;;;;;5.85;78.19;101628.33;105373;1289;71608;-55
2024/02/02 10:45:41;;;;;;;18.90;5.40;;;;;;;5.73;77.99;101621.41;105208;1286;61143;-54
2024/02/02 10:49:07;;;;;;;23.90;6.70;;;;;;;5.67;77.89;101611.93;105249;1285;61235;-53
2024/02/02 10:52:07;;;;;;;;;;;;;;;5.60;77.81;101605.80;105262;1285;77395;-54
2024/02/02 10:55:18;;;;;;;20.40;6.00;;;;;;;5.53;77.48;101602.23;105339;1285;67274;-55
2024/02/02 10:58:32;;;;;;;744.40;312.50;;;;;;;5.50;77.63;101595.48;105220;1285;71221;-52
2024/02/02 11:01:24;;;;;;;94.10;20.60;;;;;;;5.48;77.50;101584.34;105220;1288;61173;-52
2024/02/02 11:04:18;;;;;;;20.30;5.60;;;;;;;5.46;77.48;101577.45;105250;1285;61553;-55
2024/02/02 11:07:21;;;;;;;19.20;5.50;;;;;;;5.51;77.32;101583.03;105281;1285;72217;-56
2024/02/02 11:10:12;;;;;;;18.60;5.20;;;;;;;5.48;77.08;101574.75;105212;1285;68727;-55
2024/02/02 11:13:25;;;;;;;206.60;53.40;;;;;;;5.43;77.02;101574.14;106508;1286;71387;-56
2024/02/02 11:16:49;;;;;;;18.80;6.50;;;;;;;5.35;77.19;101572.95;106485;1285;59021;-55
2024/02/02 11:19:59;;;;;;;18.90;5.60;;;;;;;5.38;77.23;101564.81;106482;1285;60117;-56
2024/02/02 11:22:57;;;;;;;19.30;6.20;;;;;;;5.30;77.02;101555.09;106047;1285;73301;-55
2024/02/02 11:26:07;;;;;;;19.60;6.50;;;;;;;5.29;77.04;101555.57;105180;1288;67177;-55
2024/02/02 11:29:15;;;;;;;17.90;6.60;;;;;;;5.31;77.03;101552.52;105138;1285;71489;-56
2024/02/02 11:32:29;;;;;;;222.00;81.30;;;;;;;5.33;77.14;101543.00;105126;1287;61759;-53
2024/02/02 11:35:30;;;;;;;25.40;6.90;;;;;;;5.35;76.97;101537.05;105191;1285;61137;-56
2024/02/02 11:39:14;;;;;;;170.80;54.00;;;;;;;5.31;77.07;101525.34;105664;1286;73758;-53
2024/02/02 11:42:03;;;;;;;14.60;5.90;;;;;;;5.28;76.95;101520.50;104580;1292;66339;-56
2024/02/02 11:44:50;;;;;;;20.50;5.80;;;;;;;5.28;77.03;101515.04;104609;1291;73936;-53
2024/02/02 11:47:45;;;;;;;20.30;5.80;;;;;;;5.31;77.15;101513.55;104592;1292;61163;-56
2024/02/02 11:50:37;;;;;;;18.50;5.30;;;;;;;5.33;77.24;101508.46;105883;1291;59658;-57
2024/02/02 11:53:36;;;;;;;13.30;5.50;;;;;;;5.31;77.13;101500.57;105876;1292;74740;-55
2024/02/02 11:56:33;;;;;;;16.40;5.40;;;;;;;5.33;77.25;101501.62;105547;1293;68495;-55
2024/02/02 11:59:31;;;;;;;18.40;6.90;;;;;;;5.36;77.17;101492.61;104627;1292;73968;-55
2024/02/02 12:02:53;;;;;;;16.50;5.20;;;;;;;5.37;77.23;101491.95;104626;1292;61420;-54
2024/02/02 12:06:08;;;;;;;17.20;4.80;;;;;;;5.39;77.21;101482.92;104697;1292;60123;-55
2024/02/02 12:09:15;;;;;;;16.60;5.60;;;;;;;5.39;77.36;101471.65;104685;1295;73223;-55
2024/02/02 12:12:07;;;;;;;18.90;5.20;;;;;;;5.43;77.20;101467.11;104810;1286;67226;-55
2024/02/02 12:14:54;;;;;;;18.80;4.70;;;;;;;5.40;77.21;101455.09;105316;1287;73332;-56
2024/02/02 12:17:40;;;;;;;13.40;4.90;;;;;;;5.40;77.23;101448.92;105244;1286;61276;-55
2024/02/02 12:20:29;;;;;;;16.70;4.40;;;;;;;5.39;77.21;101439.16;105321;1285;61149;-54
2024/02/02 12:23:15;;;;;;;16.40;4.00;;;;;;;5.37;77.41;101426.81;105346;1285;73110;-56
2024/02/02 12:26:01;;;;;;;;;;;;;;;5.37;77.42;101427.50;105281;1285;67303;-56
2024/02/02 12:28:47;;;;;;;;;;;;;;;5.37;77.39;101430.40;105237;1285;72383;-55
2024/02/02 12:31:34;;;;;;;11.30;4.10;;;;;;;5.36;77.35;101428.34;105294;1287;61283;-55
2024/02/02 12:34:21;;;;;;;17.50;4.70;;;;;;;5.36;77.29;101426.80;105359;1288;61166;-55
2024/02/02 12:37:07;;;;;;;11.80;4.20;;;;;;;5.32;77.67;101412.55;106556;1284;74088;-56
2024/02/02 12:39:53;;;;;;;15.70;4.50;;;;;;;5.31;77.85;101406.04;106593;1285;68186;-57
2024/02/02 12:42:39;;;;;;;16.80;4.30;;;;;;;5.35;77.97;101401.47;106355;1284;71371;-56
2024/02/02 12:45:26;;;;;;;19.10;4.50;;;;;;;5.38;78.01;101399.46;105238;1286;60021;-55
2024/02/02 12:48:13;;;;;;;13.90;4.00;;;;;;;5.39;78.59;101403.59;105328;1286;61121;-56
2024/02/02 12:51:00;;;;;;;35.10;13.50;;;;;;;5.39;78.39;101397.10;105318;1285;73924;-56
2024/02/02 12:53:47;;;;;;;14.70;4.30;;;;;;;5.37;78.66;101391.94;105297;1287;67892;-55
2024/02/02 12:56:33;;;;;;;24.20;5.00;;;;;;;5.31;79.10;101382.08;105251;1285;71181;-54
2024/02/02 12:59:19;;;;;;;;;;;;;;;5.25;79.10;101382.32;105342;1285;61237;-55
2024/02/02 13:02:06;;;;;;;;;;;;;;;5.20;79.52;101369.95;105228;1287;60399;-55
2024/02/02 13:04:52;;;;;;;19.90;5.80;;;;;;;5.16;80.45;101362.36;105327;1284;73195;-56
2024/02/02 13:07:45;;;;;;;16.60;6.30;;;;;;;5.13;80.66;101365.39;105349;1286;67285;-55
2024/02/02 13:10:36;;;;;;;20.60;6.40;;;;;;;5.09;80.41;101348.39;105258;1285;71172;-56